createdAt,value
2023-02-02T00:01:22.107Z,2.60
2023-02-02T00:03:51.188Z,2.72
2023-02-02T00:06:21.536Z,2.42
2023-02-02T00:08:49.791Z,3.00
2023-02-02T00:11:18.941Z,2.90
2023-02-02T00:13:47.295Z,2.70
2023-02-02T00:16:36.298Z,2.25
2023-02-02T00:24:02.721Z,2.40
2023-02-02T00:26:30.734Z,2.65
2023-02-02T00:28:58.588Z,2.20
2023-02-02T00:31:26.531Z,2.60
2023-02-02T00:33:54.469Z,2.50
2023-02-02T00:36:22.549Z,2.97
2023-02-02T00:38:52.851Z,2.80
2023-02-02T00:41:21.222Z,2.85
2023-02-02T00:44:10.369Z,2.70
2023-02-02T00:46:40.037Z,2.75
2023-02-02T00:49:08.340Z,2.33
2023-02-02T00:51:36.248Z,2.95
2023-02-02T00:54:05.898Z,2.63
2023-02-02T00:56:33.707Z,2.42
2023-02-02T00:59:01.568Z,2.60
2023-02-02T01:01:29.733Z,2.83
2023-02-02T01:03:57.558Z,2.42
2023-02-02T01:06:26.074Z,2.70
2023-02-02T01:08:53.916Z,2.88
2023-02-02T01:11:23.453Z,2.90
2023-02-02T01:13:51.223Z,2.70
2023-02-02T01:16:19.148Z,2.80
2023-02-02T01:18:47.030Z,2.45
2023-02-02T01:21:14.885Z,2.28
2023-02-02T01:23:42.637Z,2.35
2023-02-02T01:26:12.433Z,1.88
2023-02-02T01:28:42.095Z,1.73
2023-02-02T01:31:11.507Z,2.10
2023-02-02T01:33:39.798Z,1.60
2023-02-02T01:36:11.096Z,1.60
2023-02-02T01:38:39.270Z,1.40
2023-02-02T01:41:07.669Z,1.52
2023-02-02T01:43:54.877Z,1.48
2023-02-02T01:46:24.522Z,1.50
2023-02-02T01:49:00.752Z,1.48
2023-02-02T01:51:33.903Z,1.55
2023-02-02T01:54:03.484Z,1.88
2023-02-02T01:56:51.953Z,1.73
2023-02-02T01:59:21.261Z,1.70
2023-02-02T02:01:50.000Z,1.73
2023-02-02T02:04:18.717Z,1.58
2023-02-02T02:06:48.222Z,1.90
2023-02-02T02:09:16.468Z,1.60
2023-02-02T02:11:44.383Z,1.60
2023-02-02T02:14:32.637Z,1.80
2023-02-02T02:17:18.886Z,1.58
2023-02-02T02:20:50.574Z,2.00
2023-02-02T02:24:03.407Z,1.92
2023-02-02T02:26:56.449Z,2.10
2023-02-02T02:29:56.493Z,2.35
2023-02-02T02:32:35.424Z,1.95
2023-02-02T02:35:10.734Z,2.35
2023-02-02T02:37:44.377Z,2.22
2023-02-02T02:40:21.512Z,2.58
2023-02-02T02:45:21.052Z,2.10
2023-02-02T02:47:51.793Z,2.28
2023-02-02T02:52:50.645Z,2.60
2023-02-02T02:55:18.851Z,2.92
2023-02-02T02:58:11.009Z,3.03
2023-02-02T03:00:49.623Z,2.35
2023-02-02T03:03:32.111Z,2.45
2023-02-02T03:06:06.792Z,2.75
2023-02-02T03:08:40.972Z,2.63
2023-02-02T03:11:11.419Z,2.78
2023-02-02T03:13:40.659Z,2.97
2023-02-02T03:16:08.705Z,2.65
2023-02-02T03:18:38.267Z,3.22
2023-02-02T03:21:06.402Z,3.03
2023-02-02T03:23:34.209Z,2.97
2023-02-02T03:26:02.339Z,3.55
2023-02-02T03:28:31.312Z,2.85
2023-02-02T03:31:02.176Z,3.20
2023-02-02T03:33:31.749Z,2.83
2023-02-02T03:36:00.910Z,2.85
2023-02-02T03:38:28.655Z,3.00
2023-02-02T03:40:56.472Z,3.28
2023-02-02T03:43:25.187Z,2.60
2023-02-02T03:45:57.314Z,2.90
2023-02-02T03:48:25.217Z,2.67
2023-02-02T03:50:53.086Z,3.20
2023-02-02T03:53:22.845Z,3.25
2023-02-02T03:55:51.086Z,2.90
2023-02-02T03:58:22.093Z,3.25
2023-02-02T04:00:50.071Z,2.85
2023-02-02T04:03:17.833Z,2.63
2023-02-02T04:05:45.647Z,3.13
2023-02-02T04:08:13.412Z,3.13
2023-02-02T04:10:43.244Z,2.97
2023-02-02T04:13:11.075Z,2.83
2023-02-02T04:15:38.914Z,2.60
2023-02-02T04:18:06.864Z,3.10
2023-02-02T04:20:34.669Z,2.47
2023-02-02T04:23:02.576Z,2.70
2023-02-02T04:25:30.398Z,2.90
2023-02-02T04:27:59.589Z,2.78
2023-02-02T04:30:27.445Z,3.03
2023-02-02T04:32:55.965Z,2.83
2023-02-02T04:35:24.108Z,2.40
2023-02-02T04:37:52.093Z,2.63
2023-02-02T04:40:20.724Z,3.28
2023-02-02T04:42:48.489Z,2.65
2023-02-02T04:45:17.894Z,2.47
2023-02-02T04:47:45.701Z,2.28
2023-02-02T04:50:13.522Z,2.38
2023-02-02T04:52:41.463Z,3.25
2023-02-02T04:55:09.962Z,2.40
2023-02-02T04:57:37.719Z,2.67
2023-02-02T05:00:06.344Z,3.25
2023-02-02T05:02:38.278Z,2.30
2023-02-02T05:05:08.261Z,2.60
2023-02-02T05:07:36.363Z,2.35
2023-02-02T05:10:04.776Z,2.80
2023-02-02T05:12:32.566Z,2.85
2023-02-02T05:15:02.165Z,3.00
2023-02-02T05:17:30.292Z,2.88
2023-02-02T05:20:00.171Z,2.83
2023-02-02T05:22:28.065Z,2.97
2023-02-02T05:24:55.970Z,3.10
2023-02-02T05:27:23.702Z,2.85
2023-02-02T05:29:51.429Z,2.75
2023-02-02T05:32:19.153Z,3.00
2023-02-02T05:34:46.910Z,2.55
2023-02-02T05:37:16.080Z,2.67
2023-02-02T05:39:44.121Z,2.83
2023-02-02T05:42:12.043Z,2.90
2023-02-02T05:44:39.889Z,3.25
2023-02-02T05:47:07.753Z,2.80
2023-02-02T05:49:35.563Z,2.80
2023-02-02T05:52:03.439Z,2.90
2023-02-02T05:54:32.587Z,2.55
2023-02-02T05:57:03.033Z,2.13
2023-02-02T05:59:30.803Z,2.45
2023-02-02T06:01:58.668Z,2.70
2023-02-02T06:04:26.533Z,2.25
2023-02-02T06:06:54.392Z,2.30
2023-02-02T06:09:23.749Z,2.17
2023-02-02T06:11:53.096Z,2.33
2023-02-02T06:14:20.953Z,2.92
2023-02-02T06:16:48.755Z,2.45
2023-02-02T06:19:16.511Z,2.50
2023-02-02T06:21:44.264Z,2.38
2023-02-02T06:24:12.053Z,2.47
2023-02-02T06:26:39.920Z,2.60
2023-02-02T06:29:13.241Z,2.65
2023-02-02T06:31:41.490Z,2.40
2023-02-02T06:34:14.577Z,2.42
2023-02-02T06:36:42.845Z,2.17
2023-02-02T06:39:10.923Z,2.28
2023-02-02T06:41:39.051Z,2.20
2023-02-02T06:44:06.883Z,2.70
2023-02-02T06:46:36.072Z,2.70
2023-02-02T06:49:03.936Z,2.67
2023-02-02T06:51:31.728Z,2.58
2023-02-02T06:53:59.705Z,2.50
2023-02-02T06:56:27.649Z,2.60
2023-02-02T06:58:55.459Z,2.97
2023-02-02T07:01:23.493Z,3.20
2023-02-02T07:03:52.865Z,2.72
2023-02-02T07:06:23.425Z,2.65
2023-02-02T07:09:01.900Z,2.80
2023-02-02T07:11:33.720Z,2.47
2023-02-02T07:14:03.289Z,2.58
2023-02-02T07:16:32.015Z,2.78
2023-02-02T07:19:01.281Z,3.10
2023-02-02T07:21:35.449Z,2.25
2023-02-02T07:24:03.692Z,2.90
2023-02-02T07:26:31.652Z,2.85
2023-02-02T07:28:59.502Z,2.58
2023-02-02T07:31:28.081Z,3.63
2023-02-02T07:33:56.021Z,2.65
2023-02-02T07:36:26.184Z,2.88
2023-02-02T07:38:55.587Z,2.63
2023-02-02T07:41:23.471Z,2.50
2023-02-02T07:43:52.155Z,2.55
2023-02-02T07:46:21.313Z,2.90
2023-02-02T07:48:58.700Z,2.90
2023-02-02T07:51:27.909Z,2.83
2023-02-02T07:53:58.448Z,2.50
2023-02-02T07:56:28.142Z,2.88
2023-02-02T07:58:57.645Z,2.63
2023-02-02T08:01:26.920Z,2.72
2023-02-02T08:03:56.149Z,3.33
2023-02-02T08:06:25.946Z,2.58
2023-02-02T08:08:55.473Z,2.70
2023-02-02T08:11:24.140Z,2.60
2023-02-02T08:13:53.428Z,2.92
2023-02-02T08:16:22.036Z,3.30
2023-02-02T08:18:50.495Z,3.00
2023-02-02T08:21:19.013Z,2.72
2023-02-02T08:23:47.556Z,2.72
2023-02-02T08:26:18.923Z,2.33
2023-02-02T08:28:48.930Z,2.35
2023-02-02T08:31:18.929Z,2.83
2023-02-02T08:33:47.277Z,2.65
2023-02-02T08:36:16.782Z,2.47
2023-02-02T08:38:44.891Z,2.50
2023-02-02T08:41:14.514Z,3.08
2023-02-02T08:43:44.525Z,2.30
2023-02-02T08:46:14.904Z,2.50
2023-02-02T08:48:43.484Z,2.63
2023-02-02T08:51:14.425Z,2.28
2023-02-02T08:53:42.511Z,2.70
2023-02-02T08:56:12.965Z,2.38
2023-02-02T08:58:41.244Z,2.33
2023-02-02T09:01:14.658Z,2.30
2023-02-02T09:03:42.718Z,2.30
2023-02-02T09:06:16.428Z,2.58
2023-02-02T09:08:44.747Z,2.53
2023-02-02T09:11:15.762Z,2.63
2023-02-02T09:13:45.821Z,2.08
2023-02-02T09:16:17.069Z,2.55
2023-02-02T09:18:46.275Z,2.42
2023-02-02T09:21:15.902Z,2.00
2023-02-02T09:23:45.009Z,2.22
2023-02-02T09:26:14.551Z,2.42
2023-02-02T09:28:44.114Z,1.95
2023-02-02T09:31:12.652Z,2.55
2023-02-02T09:33:42.551Z,2.45
2023-02-02T09:36:12.853Z,2.35
2023-02-02T09:38:41.876Z,2.50
2023-02-02T09:41:27.723Z,2.50
2023-02-02T09:44:04.047Z,2.20
2023-02-02T09:46:49.023Z,2.50
2023-02-02T09:49:23.656Z,2.33
2023-02-02T09:51:58.134Z,2.38
2023-02-02T09:54:32.403Z,2.70
2023-02-02T09:57:05.097Z,2.38
2023-02-02T09:59:38.081Z,2.33
2023-02-02T10:02:14.385Z,2.72
2023-02-02T10:04:49.038Z,2.60
2023-02-02T10:07:20.698Z,2.70
2023-02-02T10:09:55.597Z,2.17
2023-02-02T10:12:35.344Z,3.15
2023-02-02T10:15:13.435Z,2.45
2023-02-02T10:17:47.687Z,3.10
2023-02-02T10:20:44.494Z,2.60
2023-02-02T10:23:20.379Z,2.67
2023-02-02T10:25:56.617Z,2.63
2023-02-02T10:28:42.249Z,2.65
2023-02-02T10:31:20.467Z,2.75
2023-02-02T10:34:02.891Z,2.50
2023-02-02T10:36:44.818Z,2.45
2023-02-02T10:39:25.448Z,2.85
2023-02-02T10:42:04.923Z,2.95
2023-02-02T10:44:40.159Z,2.63
2023-02-02T10:47:13.162Z,2.85
2023-02-02T10:49:42.071Z,2.50
2023-02-02T10:52:18.681Z,3.08
2023-02-02T10:54:57.987Z,2.70
2023-02-02T10:57:42.446Z,2.67
2023-02-02T11:00:25.790Z,2.63
2023-02-02T11:02:54.312Z,2.95
2023-02-02T11:05:42.660Z,2.70
2023-02-02T11:08:17.678Z,3.10
2023-02-02T11:10:47.162Z,2.47
2023-02-02T11:13:26.075Z,2.60
2023-02-02T11:16:38.866Z,2.67
2023-02-02T11:19:24.167Z,2.60
2023-02-02T11:21:54.074Z,2.97
2023-02-02T11:24:26.151Z,2.33
2023-02-02T11:26:58.136Z,2.35
2023-02-02T11:29:30.324Z,2.30
2023-02-02T11:31:58.710Z,2.50
2023-02-02T11:34:29.245Z,2.60
2023-02-02T11:37:15.869Z,2.42
2023-02-02T11:39:45.520Z,2.38
2023-02-02T11:42:17.167Z,2.38
2023-02-02T11:44:49.169Z,2.22
2023-02-02T11:47:21.542Z,2.53
2023-02-02T11:49:51.615Z,2.40
2023-02-02T11:52:23.832Z,2.00
2023-02-02T11:57:24.084Z,2.15
2023-02-02T11:59:53.909Z,2.40
2023-02-02T12:02:27.667Z,2.17
2023-02-02T12:04:57.267Z,2.00
2023-02-02T12:07:28.374Z,2.55
2023-02-02T12:12:46.184Z,2.40
2023-02-02T12:15:28.215Z,1.92
2023-02-02T12:18:03.908Z,1.65
2023-02-02T12:20:41.126Z,2.00
2023-02-02T12:23:31.469Z,2.30
2023-02-02T12:26:14.280Z,1.65
2023-02-02T12:28:57.621Z,1.73
2023-02-02T12:31:33.338Z,1.88
2023-02-02T12:34:11.985Z,1.98
2023-02-02T12:36:50.907Z,2.05
2023-02-02T12:39:30.006Z,1.75
2023-02-02T12:42:18.557Z,2.13
2023-02-02T12:45:01.120Z,2.20
2023-02-02T12:47:33.259Z,2.30
2023-02-02T12:50:10.463Z,1.75
2023-02-02T12:52:53.450Z,2.10
2023-02-02T12:55:30.400Z,2.00
2023-02-02T12:58:07.661Z,2.00
2023-02-02T13:00:54.348Z,2.08
2023-02-02T13:03:31.942Z,1.90
2023-02-02T13:06:20.285Z,2.22
2023-02-02T13:08:53.328Z,2.25
2023-02-02T13:11:32.761Z,2.30
2023-02-02T13:14:09.363Z,2.50
2023-02-02T13:16:41.127Z,2.22
2023-02-02T13:19:14.857Z,2.30
2023-02-02T13:21:45.226Z,2.50
2023-02-02T13:24:20.667Z,2.20
2023-02-02T13:26:49.848Z,2.63
2023-02-02T13:29:31.105Z,2.60
2023-02-02T13:32:02.667Z,2.45
2023-02-02T13:34:42.965Z,2.30
2023-02-02T13:37:17.666Z,2.42
2023-02-02T13:39:51.227Z,2.70
2023-02-02T13:42:30.887Z,2.40
2023-02-02T13:45:07.896Z,2.20
2023-02-02T13:47:41.531Z,2.30
2023-02-02T13:50:16.565Z,2.05
2023-02-02T13:53:07.367Z,2.15
2023-02-02T13:56:07.771Z,2.22
2023-02-02T13:59:00.104Z,1.88
2023-02-02T14:01:31.903Z,1.70
2023-02-02T14:04:01.788Z,1.60
2023-02-02T14:06:30.861Z,1.63
2023-02-02T14:09:01.192Z,1.42
2023-02-02T14:11:32.402Z,1.30
2023-02-02T14:16:53.329Z,1.35
2023-02-02T14:19:56.543Z,1.30
2023-02-02T14:22:42.323Z,1.30
2023-02-02T14:25:53.375Z,1.13
2023-02-02T14:28:40.669Z,1.30
2023-02-02T14:31:54.178Z,1.20
2023-02-02T14:34:35.148Z,1.15
2023-02-02T14:37:30.957Z,1.10
2023-02-02T14:40:08.546Z,1.13
2023-02-02T14:43:05.145Z,1.10
2023-02-02T14:45:34.529Z,1.10
2023-02-02T14:48:11.341Z,1.38
2023-02-02T14:50:49.946Z,1.30
2023-02-02T14:53:23.794Z,1.10
2023-02-02T14:56:00.705Z,1.08
2023-02-02T14:58:32.746Z,1.20
2023-02-02T15:01:08.497Z,1.20
2023-02-02T15:03:48.551Z,1.70
2023-02-02T15:06:28.639Z,1.30
2023-02-02T15:09:29.312Z,2.33
2023-02-02T15:12:17.085Z,2.15
2023-02-02T15:14:50.023Z,1.63
2023-02-02T15:17:25.959Z,2.00
2023-02-02T15:20:07.245Z,1.92
2023-02-02T15:22:38.491Z,2.15
2023-02-02T15:25:18.358Z,2.22
2023-02-02T15:27:57.152Z,2.65
2023-02-02T15:30:27.526Z,2.63
2023-02-02T15:32:56.901Z,2.65
2023-02-02T15:35:31.766Z,2.90
2023-02-02T15:38:02.318Z,2.90
2023-02-02T15:40:33.057Z,3.05
2023-02-02T15:43:04.414Z,2.88
2023-02-02T15:45:37.802Z,3.10
2023-02-02T15:48:15.941Z,3.50
2023-02-02T15:50:47.364Z,3.17
2023-02-02T15:53:20.159Z,3.22
2023-02-02T15:55:47.948Z,3.35
2023-02-02T15:58:27.627Z,3.50
2023-02-02T16:01:07.861Z,3.50
2023-02-02T16:03:43.648Z,3.40
2023-02-02T16:06:13.086Z,3.33
2023-02-02T16:08:41.995Z,3.35
2023-02-02T16:11:13.214Z,3.53
2023-02-02T16:13:42.531Z,3.15
2023-02-02T16:16:24.936Z,3.50
2023-02-02T16:19:15.429Z,4.57
2023-02-02T16:21:49.056Z,4.20
2023-02-02T16:24:20.301Z,3.92
2023-02-02T16:26:48.954Z,4.10
2023-02-02T16:29:18.372Z,4.60
2023-02-02T16:31:48.018Z,3.90
2023-02-02T16:34:17.736Z,4.20
2023-02-02T16:37:05.897Z,4.40
2023-02-02T16:39:33.703Z,4.78
2023-02-02T16:42:12.119Z,4.57
2023-02-02T16:44:42.910Z,4.00
2023-02-02T16:47:33.674Z,4.45
2023-02-02T16:50:25.256Z,4.45
2023-02-02T16:52:58.217Z,4.47
2023-02-02T16:55:43.641Z,4.53
2023-02-02T16:58:21.067Z,4.40
2023-02-02T17:01:12.753Z,4.75
2023-02-02T17:03:49.873Z,5.00
2023-02-02T17:06:17.952Z,6.03
2023-02-02T17:08:47.830Z,5.88
2023-02-02T17:11:26.489Z,4.82
2023-02-02T17:13:55.305Z,4.93
2023-02-02T17:16:24.896Z,4.55
2023-02-02T17:18:53.040Z,4.65
2023-02-02T17:21:22.911Z,4.57
2023-02-02T17:23:54.159Z,4.93
2023-02-02T17:26:22.211Z,4.78
2023-02-02T17:28:51.855Z,4.57
2023-02-02T17:31:19.796Z,4.43
2023-02-02T17:33:47.756Z,4.90
2023-02-02T17:36:15.517Z,4.70
2023-02-02T17:38:43.311Z,4.28
2023-02-02T17:41:14.175Z,4.43
2023-02-02T17:43:42.946Z,4.15
2023-02-02T17:46:12.349Z,5.00
2023-02-02T17:48:40.182Z,4.75
2023-02-02T17:51:14.931Z,4.82
2023-02-02T17:53:42.774Z,4.60
2023-02-02T17:56:11.907Z,4.30
2023-02-02T17:58:39.807Z,4.22
2023-02-02T18:01:08.449Z,5.05
2023-02-02T18:03:38.840Z,5.30
2023-02-02T18:06:07.231Z,5.07
2023-02-02T18:08:45.744Z,5.25
2023-02-02T18:11:21.087Z,4.65
2023-02-02T18:13:49.351Z,4.13
2023-02-02T18:16:17.186Z,4.50
2023-02-02T18:18:45.671Z,4.43
2023-02-02T18:21:14.332Z,4.50
2023-02-02T18:23:42.181Z,4.38
2023-02-02T18:26:11.771Z,4.03
2023-02-02T18:28:41.429Z,4.22
2023-02-02T18:31:10.677Z,4.80
2023-02-02T18:33:40.525Z,4.97
2023-02-02T18:36:14.031Z,4.72
2023-02-02T18:38:43.767Z,4.78
2023-02-02T18:41:11.895Z,4.82
2023-02-02T18:43:41.004Z,4.75
2023-02-02T18:46:13.665Z,4.68
2023-02-02T18:48:42.398Z,4.97
2023-02-02T18:51:15.648Z,4.55
2023-02-02T18:53:43.533Z,5.13
2023-02-02T18:56:12.846Z,5.10
2023-02-02T18:58:42.596Z,5.15
2023-02-02T19:01:11.356Z,5.15
2023-02-02T19:03:40.325Z,5.80
2023-02-02T19:06:27.218Z,5.28
2023-02-02T19:08:55.644Z,4.93
2023-02-02T19:11:26.606Z,4.65
2023-02-02T19:13:55.800Z,5.22
2023-02-02T19:16:26.706Z,5.57
2023-02-02T19:18:57.352Z,5.50
2023-02-02T19:21:30.149Z,5.28
2023-02-02T19:23:58.084Z,5.70
2023-02-02T19:26:28.089Z,5.30
2023-02-02T19:29:20.149Z,5.03
2023-02-02T19:31:57.035Z,4.82
2023-02-02T19:34:24.852Z,5.88
2023-02-02T19:36:52.846Z,5.00
2023-02-02T19:39:22.703Z,5.00
2023-02-02T19:41:52.827Z,5.18
2023-02-02T19:44:24.945Z,4.90
2023-02-02T19:46:53.977Z,5.45
2023-02-02T19:49:27.902Z,5.32
2023-02-02T19:51:56.796Z,5.07
2023-02-02T19:54:33.078Z,4.95
2023-02-02T19:57:02.327Z,4.88
2023-02-02T19:59:36.046Z,4.95
2023-02-02T20:02:42.397Z,5.07
2023-02-02T20:05:18.529Z,4.72
2023-02-02T20:07:46.366Z,4.50
2023-02-02T20:10:20.752Z,5.22
2023-02-02T20:12:48.920Z,5.25
2023-02-02T20:15:29.026Z,6.03
2023-02-02T20:17:58.727Z,6.30
2023-02-02T20:20:29.156Z,6.22
2023-02-02T20:22:58.539Z,5.50
2023-02-02T20:25:26.526Z,4.95
2023-02-02T20:27:54.637Z,4.57
2023-02-02T20:30:28.223Z,4.43
2023-02-02T20:32:58.327Z,5.20
2023-02-02T20:35:34.621Z,5.45
2023-02-02T20:38:02.709Z,4.35
2023-02-02T20:40:31.129Z,3.90
2023-02-02T20:42:59.161Z,4.00
2023-02-02T20:45:28.327Z,4.22
2023-02-02T20:47:56.132Z,4.25
2023-02-02T20:50:24.216Z,4.10
2023-02-02T20:52:53.557Z,4.15
2023-02-02T20:55:21.375Z,3.80
2023-02-02T20:57:49.161Z,4.18
2023-02-02T21:00:19.302Z,3.70
2023-02-02T21:02:49.099Z,3.85
2023-02-02T21:05:16.931Z,3.90
2023-02-02T21:07:44.792Z,3.92
2023-02-02T21:10:12.792Z,4.10
2023-02-02T21:12:40.576Z,3.92
2023-02-02T21:15:09.287Z,3.47
2023-02-02T21:17:37.083Z,3.85
2023-02-02T21:20:07.202Z,3.97
2023-02-02T21:22:35.907Z,3.67
2023-02-02T21:25:03.745Z,4.47
2023-02-02T21:27:31.608Z,3.78
2023-02-02T21:29:59.415Z,4.03
2023-02-02T21:32:27.253Z,3.92
2023-02-02T21:34:55.060Z,3.78
2023-02-02T21:37:24.231Z,3.80
2023-02-02T21:39:53.165Z,3.13
2023-02-02T21:42:22.494Z,3.47
2023-02-02T21:44:54.127Z,3.65
2023-02-02T21:47:34.940Z,3.40
2023-02-02T21:50:15.093Z,3.55
2023-02-02T21:52:44.844Z,2.92
2023-02-02T21:55:33.037Z,3.13
2023-02-02T21:58:02.201Z,2.70
2023-02-02T22:00:34.253Z,3.22
2023-02-02T22:03:02.107Z,2.80
2023-02-02T22:05:36.315Z,2.97
2023-02-02T22:08:21.789Z,2.90
2023-02-02T22:10:49.603Z,2.75
2023-02-02T22:13:19.965Z,3.38
2023-02-02T22:15:50.839Z,2.83
2023-02-02T22:18:20.588Z,2.55
2023-02-02T22:20:50.596Z,2.90
2023-02-02T22:23:22.382Z,2.53
2023-02-02T22:25:55.712Z,2.67
2023-02-02T22:28:26.073Z,3.22
2023-02-02T22:30:55.174Z,2.50
2023-02-02T22:33:26.300Z,2.33
2023-02-02T22:38:24.952Z,2.50
2023-02-02T22:40:53.857Z,2.33
2023-02-02T22:43:22.723Z,2.22
2023-02-02T22:45:50.584Z,2.50
2023-02-02T22:48:18.760Z,2.42
2023-02-02T22:50:47.153Z,2.83
2023-02-02T22:53:15.597Z,2.80
2023-02-02T22:55:44.818Z,3.03
2023-02-02T22:58:12.594Z,2.95
2023-02-02T23:00:40.433Z,3.63
2023-02-02T23:03:08.278Z,2.78
2023-02-02T23:05:36.144Z,3.30
2023-02-02T23:08:03.906Z,3.10
2023-02-02T23:10:35.385Z,3.63
2023-02-02T23:13:05.957Z,2.92
2023-02-02T23:15:34.679Z,3.08
2023-02-02T23:18:02.688Z,3.10
2023-02-02T23:20:30.436Z,3.25
2023-02-02T23:22:58.218Z,3.10
2023-02-02T23:25:26.492Z,3.25
2023-02-02T23:27:54.402Z,3.17
2023-02-02T23:30:24.418Z,3.50
2023-02-02T23:32:53.047Z,2.72
2023-02-02T23:35:20.846Z,3.47
2023-02-02T23:37:48.649Z,3.35
2023-02-02T23:40:16.477Z,2.75
2023-02-02T23:42:44.259Z,3.45
2023-02-02T23:45:13.133Z,3.38
2023-02-02T23:47:43.334Z,2.70
2023-02-02T23:50:13.019Z,2.97
2023-02-02T23:52:41.204Z,2.53
2023-02-02T23:55:10.401Z,2.53
2023-02-02T23:57:38.555Z,2.80
